Time;durP1;ratioP1;P1;durP2;ratioP2;P2;SDS_P1;SDS_P2;PMS_P1;PMS_P2;Temp;Humidity;BMP_temperature;BMP_pressure;BME280_temperature;BME280_humidity;BME280_pressure;Samples;Min_cycle;Max_cycle;Signal;HPM_P1;HPM_P2
2022/09/24 00:01:25;;;;;;;3.70;3.37;;;8.80;99.90;8.80;100446.00;;;;4978589;28;108967;-59
2022/09/24 00:03:55;;;;;;;2.80;2.43;;;8.80;99.90;8.70;100445.00;;;;4979161;28;93690;-60
2022/09/24 00:06:22;;;;;;;2.87;2.63;;;8.80;99.90;8.70;100446.00;;;;4982697;28;93417;-59
2022/09/24 00:08:50;;;;;;;3.03;2.77;;;8.80;99.90;8.70;100461.00;;;;4949057;28;104064;-59
2022/09/24 00:11:18;;;;;;;3.23;2.53;;;8.80;99.90;8.70;100446.00;;;;4950229;28;92786;-60
2022/09/24 00:13:45;;;;;;;2.97;2.67;;;8.80;99.90;8.70;100442.00;;;;4943322;28;93522;-60
2022/09/24 00:16:14;;;;;;;3.00;2.80;;;8.80;99.90;8.70;100439.00;;;;4941400;28;92865;-59
2022/09/24 00:18:41;;;;;;;5.60;2.70;;;8.80;99.90;8.70;100449.00;;;;4937107;28;98689;-60
2022/09/24 00:21:20;;;;;;;3.30;2.50;;;8.70;99.90;8.70;100440.00;;;;4941094;28;92927;-60
2022/09/24 00:23:54;;;;;;;2.77;2.43;;;8.80;99.90;8.70;100442.00;;;;4943334;28;93296;-59
2022/09/24 00:29:06;;;;;;;4.00;2.70;;;8.70;99.90;8.60;100428.00;;;;4947948;28;93967;-60
2022/09/24 00:31:32;;;;;;;2.33;2.13;;;8.70;99.90;8.60;100428.00;;;;4947982;28;102848;-60
2022/09/24 00:33:58;;;;;;;4.50;3.10;;;8.70;99.90;8.60;100426.00;;;;4949774;28;123139;-59
2022/09/24 00:36:24;;;;;;;3.90;2.80;;;8.70;99.90;8.60;100417.00;;;;4944652;28;92835;-59
2022/09/24 00:38:52;;;;;;;5.77;2.83;;;8.70;99.90;8.60;100417.00;;;;4945174;28;92826;-58
2022/09/24 00:41:20;;;;;;;2.03;1.83;;;8.70;99.90;8.50;100409.00;;;;4947352;28;95646;-60
2022/09/24 00:43:48;;;;;;;2.00;1.83;;;8.60;99.90;8.50;100419.00;;;;4944574;28;116364;-59
2022/09/24 00:46:37;;;;;;;3.03;2.67;;;8.60;99.90;8.50;100407.00;;;;4946812;28;100739;-59
2022/09/24 00:49:19;;;;;;;2.60;2.40;;;8.60;99.90;8.40;100399.00;;;;4934226;28;92424;-61
2022/09/24 00:51:50;;;;;;;2.63;2.33;;;8.50;99.90;8.40;100406.00;;;;4941952;28;109364;-57
2022/09/24 00:54:21;;;;;;;2.50;1.97;;;8.50;99.90;8.40;100396.00;;;;4945677;28;109830;-59
2022/09/24 00:56:49;;;;;;;4.90;3.03;;;8.50;99.90;8.30;100389.00;;;;4932147;28;112326;-60
2022/09/24 00:59:18;;;;;;;2.00;1.90;;;8.40;99.90;8.30;100393.00;;;;4933088;28;101506;-58
2022/09/24 01:01:46;;;;;;;2.47;2.20;;;8.40;99.90;8.30;100390.00;;;;4933837;28;92849;-59
2022/09/24 01:04:13;;;;;;;2.10;1.73;;;8.40;99.90;8.20;100384.00;;;;4928476;28;99802;-60
2022/09/24 01:06:39;;;;;;;2.50;2.10;;;8.30;99.90;8.20;100383.00;;;;4946383;28;110622;-60
2022/09/24 01:09:05;;;;;;;2.90;2.40;;;8.30;99.90;8.10;100376.00;;;;4935050;28;93436;-60
2022/09/24 01:12:19;;;;;;;2.73;2.53;;;8.30;99.90;8.10;100380.00;;;;4929430;28;108591;-60
2022/09/24 01:15:04;;;;;;;2.30;2.10;;;8.20;99.90;8.00;100380.00;;;;4930551;28;92595;-59
2022/09/24 01:17:49;;;;;;;2.03;1.83;;;8.20;99.90;7.90;100370.00;;;;4941467;28;109004;-59
2022/09/24 01:20:30;;;;;;;4.27;2.30;;;8.10;99.90;7.90;100374.00;;;;4943383;28;92849;-60
2022/09/24 01:23:25;;;;;;;4.47;2.23;;;8.00;99.90;7.90;100373.00;;;;4946910;28;94124;-60
2022/09/24 01:26:17;;;;;;;3.50;2.40;;;8.00;99.90;7.80;100370.00;;;;4933428;28;93634;-60
2022/09/24 01:29:20;;;;;;;2.00;1.80;;;8.00;99.90;7.80;100358.00;;;;4948956;28;92845;-60
2022/09/24 01:31:58;;;;;;;3.27;2.30;;;7.90;99.90;7.80;100366.00;;;;4935164;28;93040;-60
2022/09/24 01:34:29;;;;;;;2.73;2.53;;;7.90;99.90;7.80;100370.00;;;;4928070;28;93250;-58
2022/09/24 01:36:57;;;;;;;2.77;2.57;;;7.90;99.90;7.70;100361.00;;;;4947958;28;95532;-59
2022/09/24 01:39:25;;;;;;;1.77;1.67;;;7.90;99.90;7.80;100365.00;;;;4943553;28;93270;-59
2022/09/24 01:41:52;;;;;;;2.33;2.20;;;7.90;99.90;7.70;100362.00;;;;4945851;28;111180;-58
2022/09/24 01:44:18;;;;;;;5.37;2.87;;;7.80;99.90;7.70;100368.00;;;;4949266;28;92998;-58
2022/09/24 01:46:44;;;;;;;2.47;2.27;;;7.80;99.90;7.70;100355.00;;;;4933903;28;123377;-59
2022/09/24 01:49:10;;;;;;;2.93;2.23;;;8.00;99.90;7.70;100360.00;;;;4950682;28;121804;-59
2022/09/24 01:51:49;;;;;;;3.87;2.03;;;7.80;99.90;7.70;100360.00;;;;4942910;28;111725;-59
2022/09/24 01:54:22;;;;;;;3.10;2.40;;;8.00;99.90;7.70;100356.00;;;;4932228;28;93118;-60
2022/09/24 01:56:56;;;;;;;2.93;2.50;;;7.80;99.90;7.80;100354.00;;;;4933541;28;92844;-59
2022/09/24 01:59:33;;;;;;;2.63;2.40;;;7.80;99.90;7.80;100357.00;;;;4933427;28;93049;-58
2022/09/24 02:02:27;;;;;;;2.50;2.30;;;7.90;99.90;7.80;100356.00;;;;4930997;28;103936;-59
2022/09/24 02:05:02;;;;;;;2.33;2.03;;;7.90;99.90;7.80;100344.00;;;;4950183;28;92979;-60
2022/09/24 02:08:11;;;;;;;2.90;2.30;;;8.00;99.90;7.80;100352.00;;;;4932352;28;92769;-61
2022/09/24 02:10:59;;;;;;;2.40;2.20;;;8.00;99.90;7.90;100352.00;;;;4930697;28;92946;-59
2022/09/24 02:13:31;;;;;;;3.03;2.30;;;8.00;99.90;7.90;100344.00;;;;4945551;28;102657;-59
2022/09/24 02:16:01;;;;;;;2.87;2.57;;;7.90;99.90;7.90;100359.00;;;;4932578;28;93928;-60
2022/09/24 02:18:33;;;;;;;3.43;2.27;;;8.00;99.90;8.00;100355.00;;;;4927324;28;122694;-58
2022/09/24 02:21:08;;;;;;;3.00;2.70;;;8.00;99.90;8.00;100351.00;;;;4929431;28;93325;-60
2022/09/24 02:23:37;;;;;;;2.30;2.10;;;8.20;99.90;8.00;100347.00;;;;4930982;28;101027;-60
2022/09/24 02:26:04;;;;;;;2.90;2.63;;;8.00;99.90;8.00;100348.00;;;;4934431;28;94324;-59
2022/09/24 02:28:33;;;;;;;3.17;1.90;;;8.10;99.90;8.00;100339.00;;;;4930642;28;94123;-59
2022/09/24 02:31:06;;;;;;;3.30;2.67;;;8.00;99.90;8.00;100335.00;;;;4948262;28;122952;-60
2022/09/24 02:36:19;;;;;;;2.57;2.37;;;8.10;99.90;8.00;100340.00;;;;4930197;28;92998;-60
2022/09/24 02:38:45;;;;;;;6.30;2.07;;;8.10;99.90;8.00;100338.00;;;;4922633;28;99270;-60
2022/09/24 02:41:12;;;;;;;2.80;2.40;;;8.10;99.90;8.00;100335.00;;;;4946674;28;93776;-59
2022/09/24 02:43:39;;;;;;;3.10;2.80;;;8.10;99.90;8.10;100334.00;;;;4949528;28;92978;-60
2022/09/24 02:46:08;;;;;;;2.87;2.47;;;8.10;99.90;8.10;100334.00;;;;4952084;28;92887;-59
2022/09/24 02:48:37;;;;;;;5.37;2.87;;;8.20;99.90;8.10;100323.00;;;;4947585;28;93339;-60
2022/09/24 02:51:04;;;;;;;2.77;2.57;;;8.10;99.90;8.10;100319.00;;;;4947013;28;123003;-60
2022/09/24 02:53:31;;;;;;;2.43;2.10;;;8.10;99.90;8.10;100321.00;;;;4945088;28;92944;-60
2022/09/24 02:55:59;;;;;;;2.93;2.10;;;8.10;99.90;8.00;100324.00;;;;4944345;28;94212;-60
2022/09/24 02:58:26;;;;;;;2.87;2.23;;;8.10;99.90;8.00;100318.00;;;;4940894;28;93294;-60
2022/09/24 03:00:53;;;;;;;2.67;2.23;;;8.10;99.90;8.00;100311.00;;;;4943949;28;92652;-58
2022/09/24 03:03:21;;;;;;;3.90;2.40;;;8.10;99.90;8.00;100310.00;;;;4931623;28;92996;-60
2022/09/24 03:05:48;;;;;;;3.47;2.70;;;8.10;99.90;8.00;100304.00;;;;4951410;28;94284;-59
2022/09/24 03:08:14;;;;;;;3.47;2.73;;;8.10;99.90;7.90;100320.00;;;;4946766;28;114574;-58
2022/09/24 03:10:39;;;;;;;4.77;2.70;;;8.00;99.90;7.90;100313.00;;;;4945353;28;122382;-59
2022/09/24 03:13:05;;;;;;;3.47;3.17;;;8.00;99.90;7.90;100313.00;;;;4945020;28;110582;-60
2022/09/24 03:15:31;;;;;;;2.73;2.53;;;8.00;99.90;7.80;100313.00;;;;4946098;28;93191;-59
2022/09/24 03:17:56;;;;;;;4.10;2.67;;;7.90;99.90;7.80;100315.00;;;;4944962;28;114554;-59
2022/09/24 03:20:23;;;;;;;2.73;2.33;;;7.90;99.90;7.70;100312.00;;;;4945546;28;121172;-58
2022/09/24 03:22:52;;;;;;;3.17;2.77;;;7.90;99.90;7.70;100308.00;;;;4950319;28;92075;-60
2022/09/24 03:25:19;;;;;;;2.80;2.13;;;7.90;99.90;7.70;100316.00;;;;4950010;28;109592;-59
2022/09/24 03:27:45;;;;;;;3.10;2.83;;;7.80;99.90;7.60;100298.00;;;;4947584;28;93796;-58
2022/09/24 03:32:55;;;;;;;3.37;2.43;;;7.70;99.90;7.40;100305.00;;;;4942203;28;92975;-60
2022/09/24 03:35:21;;;;;;;4.23;2.50;;;7.80;99.90;7.40;100299.00;;;;4945050;28;107353;-61
2022/09/24 03:37:47;;;;;;;1.77;1.67;;;7.50;99.90;7.40;100308.00;;;;4945574;28;92616;-58
2022/09/24 03:40:13;;;;;;;2.30;2.07;;;7.50;99.90;7.30;100302.00;;;;4946929;28;93017;-60
2022/09/24 03:42:38;;;;;;;2.80;2.13;;;7.40;99.90;7.30;100292.00;;;;4946486;28;111070;-60
2022/09/24 03:45:05;;;;;;;12.33;2.27;;;7.40;99.90;7.20;100291.00;;;;4950599;28;92632;-59
2022/09/24 03:47:31;;;;;;;3.03;2.40;;;7.30;99.90;7.20;100299.00;;;;4946038;28;112255;-60
2022/09/24 03:49:57;;;;;;;2.67;2.47;;;7.40;99.90;7.10;100304.00;;;;4944719;28;111566;-60
2022/09/24 03:52:24;;;;;;;3.27;2.60;;;7.30;99.90;7.10;100296.00;;;;4945426;28;93251;-60
2022/09/24 03:54:50;;;;;;;2.50;2.30;;;7.20;99.90;7.10;100301.00;;;;4941053;28;94147;-59
2022/09/24 03:57:16;;;;;;;2.67;2.47;;;7.20;99.90;7.00;100293.00;;;;4941848;28;101746;-60
2022/09/24 03:59:43;;;;;;;2.83;2.63;;;7.10;99.90;6.90;100292.00;;;;4945233;28;102122;-60
2022/09/24 04:02:10;;;;;;;2.30;2.10;;;7.10;99.90;6.90;100297.00;;;;4946239;28;102698;-58
2022/09/24 04:04:37;;;;;;;2.17;1.97;;;7.00;99.90;6.80;100289.00;;;;4950614;28;92768;-59
2022/09/24 04:07:03;;;;;;;2.73;2.53;;;6.90;99.90;6.70;100278.00;;;;4944709;28;109105;-60
2022/09/24 04:09:29;;;;;;;4.27;3.30;;;6.90;99.90;6.70;100282.00;;;;4944412;28;112940;-59
2022/09/24 04:11:55;;;;;;;2.43;2.13;;;6.80;99.90;6.70;100283.00;;;;4945959;28;103960;-59
2022/09/24 04:14:20;;;;;;;6.17;3.33;;;6.80;99.90;6.60;100282.00;;;;4943164;28;92745;-59
2022/09/24 04:16:46;;;;;;;3.27;2.67;;;6.70;99.90;6.60;100283.00;;;;4937896;28;96749;-60
2022/09/24 04:19:14;;;;;;;3.13;2.87;;;6.80;99.90;6.50;100277.00;;;;4940851;28;105545;-58
2022/09/24 04:21:47;;;;;;;4.00;2.50;;;6.70;99.90;6.50;100281.00;;;;4948283;28;92922;-61
2022/09/24 04:24:12;;;;;;;4.27;2.63;;;6.60;99.90;6.40;100279.00;;;;4945557;28;108151;-56
2022/09/24 04:26:38;;;;;;;2.17;1.97;;;6.60;99.90;6.40;100276.00;;;;4971087;28;121539;-59
2022/09/24 04:29:05;;;;;;;3.10;2.37;;;6.90;99.90;6.40;100285.00;;;;4975146;28;120537;-60
2022/09/24 04:31:32;;;;;;;3.50;2.70;;;6.70;99.90;6.30;100274.00;;;;4950317;28;92525;-59
2022/09/24 04:33:58;;;;;;;3.13;2.10;;;6.40;99.90;6.30;100278.00;;;;4942955;28;93185;-59
2022/09/24 04:36:24;;;;;;;3.27;2.53;;;6.40;99.90;6.20;100281.00;;;;4951771;28;93076;-59
2022/09/24 04:38:49;;;;;;;3.20;2.90;;;6.50;99.90;6.20;100276.00;;;;4949396;28;121302;-60
2022/09/24 04:41:16;;;;;;;2.33;2.13;;;6.40;99.90;6.20;100272.00;;;;4949757;28;110356;-60
2022/09/24 04:43:42;;;;;;;3.50;2.43;;;6.40;99.90;6.10;100271.00;;;;4953534;28;93658;-60
2022/09/24 04:46:08;;;;;;;2.87;2.43;;;6.30;99.90;6.10;100276.00;;;;4954561;28;106589;-58
2022/09/24 04:48:37;;;;;;;3.17;2.53;;;6.30;99.90;6.10;100272.00;;;;4965838;28;93980;-59
2022/09/24 04:51:04;;;;;;;3.33;2.70;;;6.30;99.90;6.10;100277.00;;;;4979064;28;92594;-60
2022/09/24 04:53:31;;;;;;;3.53;2.73;;;6.30;99.90;6.10;100277.00;;;;4983028;28;93139;-60
2022/09/24 04:55:58;;;;;;;2.23;2.03;;;6.20;99.90;6.10;100269.00;;;;4954013;28;93484;-60
2022/09/24 04:58:25;;;;;;;2.80;2.47;;;6.20;99.90;6.10;100272.00;;;;4949690;28;93606;-58
2022/09/24 05:00:52;;;;;;;6.30;2.43;;;6.20;99.90;6.10;100273.00;;;;4946747;28;111048;-60
2022/09/24 05:03:20;;;;;;;5.10;3.57;;;6.20;99.90;6.10;100272.00;;;;4986538;28;92573;-60
2022/09/24 05:05:46;;;;;;;9.53;2.83;;;6.30;99.90;6.10;100272.00;;;;4984913;28;94042;-61
2022/09/24 05:08:12;;;;;;;2.50;2.30;;;6.70;99.90;6.10;100269.00;;;;4978312;28;101403;-59
2022/09/24 05:10:38;;;;;;;3.37;2.77;;;6.30;99.90;6.20;100269.00;;;;4952831;28;92929;-59
2022/09/24 05:13:04;;;;;;;2.17;1.97;;;6.50;99.90;6.20;100264.00;;;;4956261;28;93057;-60
2022/09/24 05:15:30;;;;;;;2.53;2.33;;;6.30;99.90;6.30;100268.00;;;;4937304;28;105097;-59
2022/09/24 05:17:55;;;;;;;3.60;2.63;;;6.80;99.90;6.30;100258.00;;;;4955127;28;110793;-60
2022/09/24 05:20:21;;;;;;;5.50;3.10;;;6.60;99.90;6.40;100248.00;;;;4979460;28;103929;-59
2022/09/24 05:22:49;;;;;;;4.20;2.67;;;6.50;99.90;6.40;100257.00;;;;4988494;28;93457;-60
2022/09/24 05:25:17;;;;;;;4.13;3.20;;;6.50;99.90;6.50;100261.00;;;;4979511;28;91821;-59
2022/09/24 05:27:48;;;;;;;2.63;2.20;;;6.50;99.90;6.50;100269.00;;;;4974889;28;92950;-61
2022/09/24 05:30:15;;;;;;;3.07;2.17;;;6.60;99.90;6.60;100266.00;;;;4980972;28;92417;-61
2022/09/24 05:32:41;;;;;;;3.53;2.87;;;6.70;99.90;6.70;100272.00;;;;4985491;28;93654;-60
2022/09/24 05:35:08;;;;;;;2.77;2.20;;;6.70;99.90;6.80;100272.00;;;;4962595;28;115284;-60
2022/09/24 05:37:36;;;;;;;3.63;2.20;;;6.90;99.90;6.90;100270.00;;;;4953716;28;113679;-60
2022/09/24 05:42:49;;;;;;;4.97;3.83;;;7.00;99.90;7.00;100274.00;;;;4975573;28;92415;-60
2022/09/24 05:45:16;;;;;;;6.27;4.23;;;7.40;99.90;7.10;100281.00;;;;4980188;28;110775;-60
2022/09/24 05:47:46;;;;;;;2.80;2.43;;;7.20;99.90;7.20;100289.00;;;;4981231;28;93268;-60
2022/09/24 05:50:14;;;;;;;4.23;2.57;;;7.30;99.90;7.30;100282.00;;;;4984708;28;92104;-60
2022/09/24 05:52:40;;;;;;;3.90;3.50;;;7.30;99.90;7.40;100288.00;;;;4972541;28;94606;-60
2022/09/24 05:55:08;;;;;;;4.33;3.90;;;7.40;99.90;7.50;100289.00;;;;4980041;28;93633;-61
2022/09/24 05:57:34;;;;;;;4.60;3.70;;;7.50;99.90;7.60;100287.00;;;;4982271;28;94062;-61
2022/09/24 06:00:00;;;;;;;4.80;4.40;;;7.80;99.90;7.70;100290.00;;;;4965068;28;103267;-61
2022/09/24 06:02:26;;;;;;;5.17;4.13;;;7.70;99.90;7.80;100286.00;;;;4949643;28;96779;-60
2022/09/24 06:04:52;;;;;;;7.33;6.03;;;7.80;99.90;7.90;100291.00;;;;4946142;28;93915;-60
2022/09/24 06:07:20;;;;;;;7.13;6.40;;;7.90;99.90;7.90;100281.00;;;;4947396;28;93323;-61
2022/09/24 06:09:46;;;;;;;15.17;7.87;;;8.20;99.90;8.10;100291.00;;;;4967331;28;93003;-60
2022/09/24 06:12:13;;;;;;;12.53;9.10;;;8.00;99.90;8.10;100291.00;;;;4984468;28;92302;-61
2022/09/24 06:14:41;;;;;;;12.60;8.17;;;8.20;99.90;8.20;100299.00;;;;4978599;28;92089;-60
2022/09/24 06:17:07;;;;;;;11.00;7.93;;;8.30;99.90;8.30;100300.00;;;;4964592;28;92744;-61
2022/09/24 06:19:33;;;;;;;12.30;9.40;;;8.40;99.90;8.40;100294.00;;;;4981762;28;92923;-59
2022/09/24 06:21:59;;;;;;;17.70;11.10;;;8.50;99.90;8.50;100293.00;;;;4978623;28;109405;-59
2022/09/24 06:24:25;;;;;;;16.40;10.33;;;8.50;99.90;8.60;100302.00;;;;4978305;28;122141;-57
2022/09/24 06:26:51;;;;;;;12.73;6.93;;;8.60;99.90;8.60;100302.00;;;;4963130;28;124016;-61
2022/09/24 06:29:17;;;;;;;11.80;7.50;;;8.60;99.90;8.70;100296.00;;;;4978515;28;113767;-60
2022/09/24 06:31:43;;;;;;;5.23;4.50;;;8.70;99.90;8.70;100295.00;;;;4981115;28;91997;-59
2022/09/24 06:34:09;;;;;;;5.20;3.53;;;8.70;99.90;8.80;100309.00;;;;4981718;28;92521;-60
2022/09/24 06:36:35;;;;;;;5.10;4.57;;;8.80;99.90;8.90;100304.00;;;;4979213;28;123348;-61
2022/09/24 06:39:00;;;;;;;7.27;5.07;;;8.90;99.90;8.90;100306.00;;;;4982241;28;91287;-59
2022/09/24 06:41:26;;;;;;;8.47;4.57;;;8.90;99.90;9.00;100306.00;;;;4973565;28;108749;-62
2022/09/24 06:43:55;;;;;;;4.83;3.13;;;9.00;99.90;9.10;100299.00;;;;4979956;28;120687;-59
2022/09/24 06:46:24;;;;;;;7.73;3.33;;;9.10;99.90;9.20;100296.00;;;;4976896;28;117819;-61
2022/09/24 06:48:52;;;;;;;4.73;3.93;;;9.20;99.90;9.30;100310.00;;;;4977621;28;92468;-58
2022/09/24 06:51:18;;;;;;;3.90;3.23;;;9.30;99.90;9.40;100301.00;;;;4976559;28;92557;-60
2022/09/24 06:53:44;;;;;;;7.10;5.23;;;9.40;99.90;9.50;100303.00;;;;4980638;28;94165;-59
2022/09/24 06:56:09;;;;;;;4.43;4.03;;;9.50;99.90;9.50;100290.00;;;;4951576;28;122615;-58
2022/09/24 06:58:35;;;;;;;4.70;3.90;;;9.50;99.90;9.70;100304.00;;;;4951913;28;110429;-60
2022/09/24 07:01:02;;;;;;;5.37;4.23;;;9.60;99.90;9.80;100308.00;;;;4941960;28;109633;-59
2022/09/24 07:03:31;;;;;;;3.80;3.40;;;9.70;99.90;9.80;100303.00;;;;4948168;28;93491;-59
2022/09/24 07:06:02;;;;;;;3.83;2.87;;;9.80;99.90;9.90;100312.00;;;;4953748;28;99625;-59
2022/09/24 07:08:28;;;;;;;3.27;2.97;;;9.90;99.90;10.00;100311.00;;;;4950464;28;92949;-60
2022/09/24 07:10:54;;;;;;;5.27;3.33;;;10.30;99.90;10.10;100306.00;;;;4974166;28;98025;-60
2022/09/24 07:13:20;;;;;;;5.17;3.13;;;10.10;99.90;10.20;100307.00;;;;4977678;28;120974;-60
2022/09/24 07:15:48;;;;;;;3.23;2.60;;;10.10;99.90;10.30;100309.00;;;;4982115;28;92589;-59
2022/09/24 07:18:13;;;;;;;11.00;2.87;;;10.30;99.90;10.40;100304.00;;;;4981507;28;92893;-59
2022/09/24 07:20:40;;;;;;;5.13;2.23;;;10.30;99.90;10.50;100317.00;;;;4979847;28;107820;-59
2022/09/24 07:23:09;;;;;;;5.13;3.37;;;10.40;99.90;10.60;100315.00;;;;4974913;28;123124;-59
2022/09/24 07:25:36;;;;;;;2.57;2.20;;;10.50;99.90;10.60;100309.00;;;;4949508;28;112452;-59
2022/09/24 07:28:09;;;;;;;123.97;64.33;;;10.60;99.90;10.70;100316.00;;;;4944011;28;92381;-61
2022/09/24 07:30:36;;;;;;;22.33;15.00;;;10.70;99.90;10.90;100313.00;;;;4964209;28;93217;-60
2022/09/24 07:33:02;;;;;;;9.10;4.63;;;10.80;99.90;11.10;100312.00;;;;4977902;28;93485;-61
2022/09/24 07:35:29;;;;;;;5.47;3.73;;;11.00;99.90;11.40;100299.00;;;;4980473;28;101631;-58
2022/09/24 07:38:05;;;;;;;59.77;34.27;;;11.20;99.90;11.70;100300.00;;;;4982105;28;111187;-59
2022/09/24 07:40:31;;;;;;;59.27;29.60;;;11.50;99.90;12.10;100300.00;;;;4978107;28;92669;-60
2022/09/24 07:42:58;;;;;;;227.90;133.17;;;11.80;99.90;12.60;100312.00;;;;4976729;28;93622;-60
2022/09/24 07:45:27;;;;;;;17.57;11.43;;;12.30;99.90;13.00;100309.00;;;;4973768;28;116594;-60
2022/09/24 07:48:02;;;;;;;5.20;3.53;;;12.70;99.90;13.40;100311.00;;;;4976285;28;92355;-60
2022/09/24 07:50:31;;;;;;;2.70;2.03;;;13.10;99.90;13.60;100308.00;;;;4977944;28;92039;-59
2022/09/24 07:52:56;;;;;;;3.13;2.27;;;13.40;99.90;13.80;100309.00;;;;4979119;28;91885;-59
2022/09/24 07:55:23;;;;;;;1.80;1.67;;;13.60;99.90;13.90;100301.00;;;;4978017;28;94637;-59
2022/09/24 07:57:52;;;;;;;3.80;1.70;;;13.70;99.90;14.10;100300.00;;;;4975670;28;91895;-59
2022/09/24 08:00:20;;;;;;;2.10;1.47;;;13.90;99.90;14.20;100303.00;;;;4974296;28;93456;-59
2022/09/24 08:02:47;;;;;;;2.00;1.57;;;14.10;99.90;14.30;100311.00;;;;4973458;28;107789;-58
2022/09/24 08:05:15;;;;;;;3.23;1.83;;;14.20;99.90;14.40;100311.00;;;;4960443;28;121519;-59
2022/09/24 08:07:41;;;;;;;3.57;1.83;;;14.30;99.90;14.60;100310.00;;;;4960536;28;92440;-60
2022/09/24 08:10:08;;;;;;;3.17;2.87;;;14.40;99.90;14.80;100302.00;;;;4975690;28;109700;-58
2022/09/24 08:12:34;;;;;;;2.47;1.90;;;14.60;99.90;15.00;100323.00;;;;4976755;28;92647;-59
2022/09/24 08:14:59;;;;;;;2.63;2.42;;;14.80;99.90;15.20;100321.00;;;;4962984;28;122685;-58
2022/09/24 08:17:25;;;;;;;2.63;1.65;;;15.00;99.90;15.40;100319.00;;;;4945615;28;104423;-60
2022/09/24 08:19:55;;;;;;;1.70;1.20;;;15.10;99.90;15.60;100321.00;;;;4936156;28;92963;-59
2022/09/24 08:22:22;;;;;;;3.13;1.50;;;15.30;99.90;15.70;100317.00;;;;4939686;28;94220;-58
2022/09/24 08:24:49;;;;;;;4.70;2.55;;;15.50;99.90;15.80;100316.00;;;;4948273;28;94819;-59
2022/09/24 08:27:16;;;;;;;2.33;2.13;;;15.60;99.90;16.00;100335.00;;;;4977212;28;92558;-59
2022/09/24 08:29:42;;;;;;;4.13;2.13;;;15.80;99.90;16.10;100336.00;;;;4979582;28;92574;-58
2022/09/24 08:32:07;;;;;;;3.38;2.28;;;15.90;99.90;16.20;100331.00;;;;4976291;28;123557;-59
2022/09/24 08:34:37;;;;;;;1.60;1.50;;;16.00;99.90;16.40;100326.00;;;;4977024;28;121781;-58
2022/09/24 08:37:04;;;;;;;1.83;1.65;;;16.20;99.90;16.40;100332.00;;;;4980988;28;92804;-59
2022/09/24 08:39:31;;;;;;;1.63;1.48;;;16.30;99.90;16.40;100335.00;;;;4968500;28;92972;-58
2022/09/24 08:42:05;;;;;;;1.98;1.70;;;16.30;99.90;16.40;100326.00;;;;4939719;28;93179;-58
2022/09/24 08:47:59;;;;;;;2.30;1.40;;;16.30;99.90;16.50;100324.00;;;;4933638;28;92985;-59
2022/09/24 08:50:32;;;;;;;2.47;2.28;;;16.40;99.90;16.70;100323.00;;;;4945672;28;93808;-59
2022/09/24 08:53:17;;;;;;;3.95;1.90;;;16.50;99.90;16.80;100319.00;;;;4926969;28;118878;-59
2022/09/24 08:55:51;;;;;;;2.28;1.40;;;16.70;99.90;17.00;100323.00;;;;4944256;28;93168;-59
2022/09/24 08:58:31;;;;;;;2.03;1.42;;;16.80;99.90;17.20;100325.00;;;;4967520;28;93366;-59
2022/09/24 09:01:18;;;;;;;1.42;1.02;;;17.00;99.90;17.40;100315.00;;;;4953741;28;93024;-58
2022/09/24 09:04:19;;;;;;;1.60;1.48;;;17.10;99.60;17.50;100316.00;;;;4942554;28;116622;-58
2022/09/24 09:07:01;;;;;;;6.53;2.13;;;17.30;99.00;17.80;100333.00;;;;4895589;28;108282;-58
2022/09/24 09:10:02;;;;;;;2.08;1.70;;;17.50;98.40;18.20;100334.00;;;;4952160;28;92457;-57
2022/09/24 09:12:47;;;;;;;3.20;1.80;;;17.90;97.80;18.60;100340.00;;;;4982744;28;92520;-58
2022/09/24 09:15:28;;;;;;;1.27;1.17;;;18.30;96.70;19.00;100337.00;;;;4948153;28;108121;-59
2022/09/24 09:18:20;;;;;;;2.92;2.20;;;18.70;95.80;19.40;100336.00;;;;4929956;28;93645;-59
2022/09/24 09:20:48;;;;;;;1.25;1.15;;;19.10;95.00;19.80;100339.00;;;;4935504;28;92606;-59
2022/09/24 09:23:40;;;;;;;3.95;2.47;;;19.50;94.20;20.20;100342.00;;;;4946005;28;95557;-59
2022/09/24 09:26:10;;;;;;;1.65;1.30;;;19.90;93.40;20.60;100352.00;;;;4933711;28;93702;-59
2022/09/24 09:28:36;;;;;;;2.67;1.63;;;20.20;92.40;20.90;100342.00;;;;4947240;28;93664;-59
2022/09/24 09:31:37;;;;;;;1.40;1.30;;;20.50;91.70;21.30;100340.00;;;;4961308;28;110683;-59
2022/09/24 09:34:53;;;;;;;1.67;1.42;;;20.90;90.40;21.80;100348.00;;;;4953686;28;92902;-60
2022/09/24 09:37:28;;;;;;;1.30;1.20;;;21.30;88.50;22.20;100342.00;;;;4949191;28;92657;-59
2022/09/24 09:40:30;;;;;;;1.85;1.65;;;21.80;85.60;22.70;100345.00;;;;4950280;28;93208;-58
2022/09/24 09:43:08;;;;;;;1.20;1.00;;;22.20;82.60;22.90;100350.00;;;;4980120;28;92570;-59
2022/09/24 09:46:00;;;;;;;6.75;1.50;;;22.50;76.80;23.10;100350.00;;;;4977784;28;93447;-60
2022/09/24 09:48:38;;;;;;;3.10;2.03;;;22.70;72.00;23.20;100352.00;;;;4961258;28;93194;-59
2022/09/24 09:51:05;;;;;;;1.63;0.88;;;22.80;69.30;23.20;100345.00;;;;4963918;28;92720;-60
2022/09/24 09:53:32;;;;;;;4.20;1.90;;;22.80;65.40;23.10;100346.00;;;;4979122;28;92609;-60
2022/09/24 09:56:05;;;;;;;10.38;5.38;;;22.80;67.20;23.10;100346.00;;;;4967533;28;92094;-59
2022/09/24 09:58:33;;;;;;;1.95;1.75;;;22.80;67.60;23.30;100352.00;;;;4960940;28;93671;-59
2022/09/24 10:01:12;;;;;;;10.82;7.05;;;22.90;66.50;23.40;100355.00;;;;4976456;28;93525;-59
2022/09/24 10:03:43;;;;;;;3.75;2.63;;;23.00;66.30;23.60;100346.00;;;;4961941;28;91946;-59
2022/09/24 10:06:13;;;;;;;21.27;15.23;;;23.20;65.40;23.60;100343.00;;;;4959144;28;109400;-59
2022/09/24 10:08:39;;;;;;;10.68;6.38;;;23.30;64.90;23.60;100342.00;;;;4945495;28;104998;-58
2022/09/24 10:11:14;;;;;;;4.00;2.60;;;23.30;63.70;23.50;100341.00;;;;4974502;28;122077;-58
2022/09/24 10:13:39;;;;;;;2.67;2.17;;;23.20;64.50;23.40;100334.00;;;;4964915;28;92533;-60
2022/09/24 10:16:09;;;;;;;2.05;1.30;;;23.10;63.70;23.40;100336.00;;;;4972893;28;107833;-60
2022/09/24 10:18:49;;;;;;;1.00;0.77;;;23.10;62.20;23.20;100334.00;;;;4977130;28;94797;-60
2022/09/24 10:21:35;;;;;;;1.27;1.17;;;23.00;59.80;23.00;100333.00;;;;4947541;28;122045;-59
2022/09/24 10:24:07;;;;;;;0.80;0.80;;;22.80;59.10;22.80;100320.00;;;;4945021;28;92764;-60
2022/09/24 10:26:39;;;;;;;2.72;1.02;;;22.50;59.50;22.60;100331.00;;;;4980167;28;92767;-60
2022/09/24 10:31:56;;;;;;;1.27;1.17;;;22.10;58.40;21.90;100325.00;;;;4925826;28;92967;-62
2022/09/24 10:34:27;;;;;;;1.73;1.63;;;21.70;59.00;21.70;100333.00;;;;4945671;28;109838;-60
2022/09/24 10:37:03;;;;;;;2.33;2.03;;;21.50;60.20;21.60;100335.00;;;;4956318;28;93573;-60
2022/09/24 10:39:30;;;;;;;2.90;1.73;;;21.40;61.40;21.50;100339.00;;;;4946288;28;93066;-59
2022/09/24 10:41:56;;;;;;;1.98;1.50;;;21.30;62.00;21.50;100334.00;;;;4977649;28;92522;-60
2022/09/24 10:44:28;;;;;;;1.98;1.42;;;21.20;62.70;21.40;100334.00;;;;4971948;28;93040;-59
2022/09/24 10:47:18;;;;;;;1.08;1.02;;;21.10;63.20;21.50;100336.00;;;;4933382;28;97143;-59
2022/09/24 10:50:27;;;;;;;2.17;1.27;;;21.20;64.00;21.60;100333.00;;;;4955054;28;99939;-56
2022/09/24 10:53:02;;;;;;;1.02;0.93;;;21.20;64.30;21.70;100343.00;;;;4934338;28;93733;-58
2022/09/24 10:55:54;;;;;;;1.90;1.35;;;21.40;65.30;21.90;100330.00;;;;4979150;28;102521;-58
2022/09/24 10:58:54;;;;;;;1.23;0.93;;;21.50;63.70;22.10;100337.00;;;;4963922;28;100488;-59
2022/09/24 11:01:29;;;;;;;2.08;1.20;;;21.70;63.80;22.40;100331.00;;;;4933941;28;94076;-58
2022/09/24 11:04:21;;;;;;;1.73;1.20;;;22.00;62.70;22.80;100318.00;;;;4942377;28;109192;-59
2022/09/24 11:07:24;;;;;;;1.52;1.08;;;22.50;62.10;23.30;100323.00;;;;4962495;28;101882;-59
2022/09/24 11:10:22;;;;;;;1.92;1.55;;;22.80;61.80;23.90;100331.00;;;;4963599;28;101310;-59
2022/09/24 11:13:09;;;;;;;2.65;1.05;;;23.20;61.00;24.40;100335.00;;;;4963681;28;92794;-58
2022/09/24 11:16:11;;;;;;;2.17;1.50;;;23.70;58.90;24.60;100324.00;;;;4959165;28;116943;-59
2022/09/24 11:18:40;;;;;;;0.95;0.70;;;24.10;57.30;25.00;100335.00;;;;4979326;28;92061;-60
2022/09/24 11:21:34;;;;;;;1.27;0.73;;;24.40;57.70;25.40;100326.00;;;;4974976;28;92738;-60
2022/09/24 11:24:28;;;;;;;2.63;1.63;;;24.80;54.30;25.60;100315.00;;;;4979879;28;92867;-60
2022/09/24 11:27:38;;;;;;;517.58;260.27;;;25.00;54.10;25.50;100326.00;;;;4942427;28;93489;-58
2022/09/24 11:30:29;;;;;;;7.70;4.97;;;25.10;53.20;25.40;100324.00;;;;4942737;28;92937;-59